Time;durP1;ratioP1;P1;durP2;ratioP2;P2;SDS_P1;SDS_P2;PMS_P1;PMS_P2;Temp;Humidity;BMP_temperature;BMP_pressure;BME280_temperature;BME280_humidity;BME280_pressure;Samples;Min_cycle;Max_cycle;Signal;HPM_P1;HPM_P2
2022/03/25 00:01:00;;;;;;;28.05;13.38;;;;;;;2.83;63.64;98308.91;5022814;28;20045;-65
2022/03/25 00:03:27;;;;;;;26.55;13.25;;;;;;;2.85;63.84;98304.22;5024498;28;20037;-65
2022/03/25 00:05:54;;;;;;;27.13;12.27;;;;;;;2.90;63.44;98307.19;5023981;28;20049;-65
2022/03/25 00:08:21;;;;;;;30.50;12.32;;;;;;;2.95;63.41;98314.69;5019031;28;20120;-65
2022/03/25 00:10:47;;;;;;;25.08;12.13;;;;;;;3.01;63.42;98305.09;5024321;28;20049;-66
2022/03/25 00:13:15;;;;;;;28.20;13.85;;;;;;;2.98;63.07;98317.84;5027330;28;20049;-65
2022/03/25 00:15:41;;;;;;;26.98;13.60;;;;;;;3.04;63.25;98305.59;5028486;28;20511;-65
2022/03/25 00:18:08;;;;;;;25.52;12.75;;;;;;;2.99;63.13;98311.47;5030994;28;20420;-66
2022/03/25 00:20:35;;;;;;;24.45;13.10;;;;;;;3.06;63.12;98302.75;5027806;28;20041;-65
2022/03/25 00:23:02;;;;;;;23.73;11.88;;;;;;;3.04;63.02;98305.59;5028463;28;20065;-66
2022/03/25 00:25:29;;;;;;;20.27;10.95;;;;;;;2.99;63.08;98303.44;5031394;28;20036;-65
2022/03/25 00:27:56;;;;;;;27.73;12.05;;;;;;;3.06;63.07;98302.75;5027554;28;20496;-65
2022/03/25 00:30:22;;;;;;;26.17;11.50;;;;;;;3.07;63.10;98302.56;5024686;28;20132;-65
2022/03/25 00:32:49;;;;;;;21.67;10.65;;;;;;;3.09;62.71;98303.19;5031803;28;20033;-64
2022/03/25 00:35:17;;;;;;;27.95;12.52;;;;;;;3.15;62.62;98296.28;5029490;28;20033;-66
2022/03/25 00:37:44;;;;;;;23.00;12.00;;;;;;;2.92;63.44;98299.00;5027800;28;20049;-66
2022/03/25 00:40:11;;;;;;;25.95;13.20;;;;;;;2.81;63.48;98295.75;5026315;28;20053;-65
2022/03/25 00:42:38;;;;;;;24.40;12.15;;;;;;;2.93;63.30;98298.81;5025537;28;20060;-65
2022/03/25 00:45:06;;;;;;;24.88;12.30;;;;;;;2.86;63.51;98292.50;5026706;28;20069;-65
2022/03/25 00:47:36;;;;;;;21.88;11.35;;;;;;;2.81;63.87;98289.56;5025891;28;20080;-65
2022/03/25 00:50:04;;;;;;;30.55;12.00;;;;;;;2.82;63.84;98288.53;5025590;28;20056;-65
2022/03/25 00:52:30;;;;;;;22.38;11.13;;;;;;;2.81;63.84;98286.88;5033794;28;20056;-65
2022/03/25 00:54:58;;;;;;;23.13;12.82;;;;;;;2.78;63.77;98280.03;5026252;28;20088;-66
2022/03/25 00:57:24;;;;;;;24.88;12.35;;;;;;;2.68;64.36;98277.59;5027230;28;20103;-66
2022/03/25 00:59:55;;;;;;;20.00;11.15;;;;;;;2.64;64.55;98283.47;5031023;28;20038;-65
2022/03/25 01:02:22;;;;;;;25.58;12.63;;;;;;;2.62;64.69;98281.00;5027769;28;20424;-65
2022/03/25 01:04:50;;;;;;;28.63;13.05;;;;;;;2.69;64.53;98281.13;5026682;28;20497;-65
2022/03/25 01:07:17;;;;;;;19.98;10.75;;;;;;;2.71;64.02;98279.09;5024523;28;20045;-65
2022/03/25 01:09:44;;;;;;;23.45;12.30;;;;;;;2.76;64.08;98276.69;5027628;28;20046;-65
2022/03/25 01:12:11;;;;;;;29.60;14.00;;;;;;;2.70;64.27;98278.25;5025441;28;20041;-65
2022/03/25 01:14:38;;;;;;;25.08;11.77;;;;;;;2.69;64.07;98278.44;5026307;28;20092;-65
2022/03/25 01:17:05;;;;;;;23.65;11.95;;;;;;;2.65;64.24;98277.97;5026656;28;20129;-65
2022/03/25 01:19:32;;;;;;;22.38;11.98;;;;;;;2.62;64.10;98275.66;5026600;28;20033;-65
2022/03/25 01:21:58;;;;;;;21.77;10.70;;;;;;;2.62;64.41;98278.34;5025420;28;20527;-65
2022/03/25 01:24:26;;;;;;;22.33;11.82;;;;;;;2.60;64.27;98275.84;5037381;28;20038;-65
2022/03/25 01:26:53;;;;;;;25.45;13.60;;;;;;;2.54;64.42;98275.72;5024865;28;20044;-65
2022/03/25 01:29:19;;;;;;;21.92;11.15;;;;;;;2.47;65.10;98281.75;5026965;28;20045;-65
2022/03/25 01:31:46;;;;;;;27.38;12.90;;;;;;;2.51;64.87;98279.56;5025239;28;20123;-65
2022/03/25 01:34:13;;;;;;;25.35;12.05;;;;;;;2.48;64.58;98279.94;5027298;28;20618;-64
2022/03/25 01:36:39;;;;;;;26.48;13.07;;;;;;;2.33;65.46;98279.84;5026649;28;20171;-65
2022/03/25 01:39:08;;;;;;;29.38;13.02;;;;;;;2.24;65.53;98278.25;5026027;28;20057;-66
2022/03/25 01:41:34;;;;;;;21.77;11.50;;;;;;;2.27;65.80;98283.22;5024440;28;20050;-65
2022/03/25 01:44:04;;;;;;;27.02;12.02;;;;;;;2.18;65.78;98282.44;5026812;28;20033;-65
2022/03/25 01:46:31;;;;;;;23.73;12.65;;;;;;;2.17;65.99;98278.06;5023410;28;20050;-65
2022/03/25 01:48:58;;;;;;;24.25;11.98;;;;;;;2.17;66.10;98273.56;5033335;28;20060;-65
2022/03/25 01:51:32;;;;;;;25.25;11.75;;;;;;;1.97;66.47;98281.19;5023809;28;20040;-65
2022/03/25 01:54:01;;;;;;;23.65;11.23;;;;;;;1.97;67.03;98275.84;5032951;28;20558;-65
2022/03/25 01:56:28;;;;;;;27.88;11.73;;;;;;;1.77;67.42;98270.09;5024874;28;20103;-65
2022/03/25 01:58:55;;;;;;;25.27;13.15;;;;;;;1.56;67.99;98269.66;5026322;28;20103;-65
2022/03/25 02:01:25;;;;;;;25.58;12.57;;;;;;;1.58;68.19;98277.50;5025239;28;20037;-65
2022/03/25 02:03:52;;;;;;;22.52;12.38;;;;;;;1.52;68.40;98272.84;5025930;28;20689;-65
2022/03/25 02:06:18;;;;;;;24.48;13.43;;;;;;;1.52;68.17;98270.19;5024987;28;20042;-65
2022/03/25 02:08:48;;;;;;;27.42;12.98;;;;;;;1.46;68.64;98273.53;5025616;28;20190;-64
2022/03/25 02:11:15;;;;;;;27.10;13.35;;;;;;;1.40;68.98;98272.38;5039647;28;20047;-65
2022/03/25 02:13:42;;;;;;;24.73;11.77;;;;;;;1.43;68.52;98278.22;5030578;28;20156;-65
2022/03/25 02:16:09;;;;;;;24.80;12.55;;;;;;;1.40;69.16;98273.19;5024154;28;20045;-64
2022/03/25 02:18:36;;;;;;;23.83;12.38;;;;;;;1.41;68.50;98269.53;5024351;28;20078;-65
2022/03/25 02:21:02;;;;;;;29.75;12.15;;;;;;;1.49;68.77;98281.19;5024513;28;20050;-65
2022/03/25 02:23:29;;;;;;;26.40;13.10;;;;;;;1.51;68.29;98273.88;5025460;28;20076;-65
2022/03/25 02:25:56;;;;;;;29.48;12.52;;;;;;;1.55;68.50;98265.31;5024023;28;20068;-65
2022/03/25 02:28:24;;;;;;;22.15;12.23;;;;;;;1.58;68.60;98274.00;5025376;28;20047;-65
2022/03/25 02:30:54;;;;;;;25.80;13.38;;;;;;;1.47;68.43;98277.88;5025032;28;20460;-65
2022/03/25 02:33:21;;;;;;;22.77;11.85;;;;;;;1.39;69.35;98271.53;5024537;28;20045;-65
2022/03/25 02:35:50;;;;;;;25.38;12.80;;;;;;;1.40;68.80;98281.22;5034609;28;20055;-66
2022/03/25 02:38:23;;;;;;;25.38;12.98;;;;;;;1.35;69.08;98272.03;5028568;28;20133;-66
2022/03/25 02:40:51;;;;;;;25.42;12.75;;;;;;;1.33;69.16;98272.25;5016277;28;20049;-65
2022/03/25 02:43:18;;;;;;;25.35;13.25;;;;;;;1.39;68.97;98270.69;5024103;28;20543;-65
2022/03/25 02:45:49;;;;;;;;;;;;;;;1.37;68.98;98265.53;5024112;28;20505;-65
2022/03/25 02:48:16;;;;;;;25.30;12.73;;;;;;;1.50;68.61;98270.34;5037532;28;19927;-65
2022/03/25 02:50:44;;;;;;;23.80;12.40;;;;;;;1.50;68.70;98269.50;5023562;28;20034;-65
2022/03/25 02:53:10;;;;;;;23.92;12.70;;;;;;;1.45;68.68;98269.19;5041514;28;20041;-65
2022/03/25 02:55:37;;;;;;;25.05;11.70;;;;;;;1.44;68.45;98271.03;5024726;28;20029;-65
2022/03/25 02:58:03;;;;;;;32.33;13.38;;;;;;;1.48;68.36;98272.38;5013043;28;20042;-66
2022/03/25 03:00:31;;;;;;;25.58;12.93;;;;;;;1.48;68.20;98274.19;5011334;28;20052;-65
2022/03/25 03:03:00;;;;;;;24.70;11.30;;;;;;;1.47;68.71;98273.34;5032187;28;20057;-65
2022/03/25 03:05:28;;;;;;;25.50;12.98;;;;;;;1.38;68.49;98269.03;5027020;28;20535;-66
2022/03/25 03:07:55;;;;;;;24.35;12.68;;;;;;;1.34;68.91;98268.56;5024827;28;20405;-65
2022/03/25 03:10:22;;;;;;;28.67;13.05;;;;;;;1.45;68.59;98261.19;5025363;28;20049;-65
2022/03/25 03:12:48;;;;;;;25.98;12.40;;;;;;;1.39;69.30;98265.38;5024832;28;20054;-65
2022/03/25 03:15:17;;;;;;;25.40;13.27;;;;;;;1.46;68.85;98273.53;5021617;28;20567;-65
2022/03/25 03:17:45;;;;;;;27.13;12.30;;;;;;;1.57;67.90;98273.16;5022069;28;20051;-65
2022/03/25 03:20:13;;;;;;;36.85;14.73;;;;;;;1.63;67.75;98275.16;5025258;28;20442;-66
2022/03/25 03:22:40;;;;;;;24.33;12.00;;;;;;;1.65;68.08;98274.97;5023208;28;20055;-65
2022/03/25 03:25:08;;;;;;;28.90;13.48;;;;;;;1.56;68.41;98274.19;5024815;28;20045;-65
2022/03/25 03:27:34;;;;;;;26.40;12.57;;;;;;;1.50;68.36;98277.50;5027918;28;20049;-65
2022/03/25 03:30:01;;;;;;;25.17;12.57;;;;;;;1.36;69.03;98271.88;5022565;28;20053;-64
2022/03/25 03:32:27;;;;;;;22.10;11.60;;;;;;;1.30;69.41;98272.56;5024440;28;20812;-65
2022/03/25 03:34:55;;;;;;;28.27;12.63;;;;;;;1.38;69.24;98261.88;5029408;28;20052;-65
2022/03/25 03:37:22;;;;;;;23.30;12.95;;;;;;;1.39;69.08;98265.38;5024771;28;20602;-65
2022/03/25 03:39:49;;;;;;;30.35;13.20;;;;;;;1.42;69.10;98265.03;5024024;28;20112;-65
2022/03/25 03:42:15;;;;;;;28.88;13.20;;;;;;;1.35;69.43;98266.72;5024767;28;20045;-65
2022/03/25 03:44:42;;;;;;;29.90;13.05;;;;;;;1.35;69.00;98264.88;5024166;28;20049;-65
2022/03/25 03:47:10;;;;;;;28.88;13.00;;;;;;;1.28;69.11;98259.41;5022580;28;20091;-65
2022/03/25 03:49:38;;;;;;;23.02;11.10;;;;;;;1.27;69.03;98256.91;5024352;28;20114;-65
2022/03/25 03:52:06;;;;;;;24.60;12.63;;;;;;;1.16;69.90;98258.94;5022468;28;20087;-65
2022/03/25 03:54:33;;;;;;;26.52;13.73;;;;;;;1.22;69.31;98259.25;5024340;28;20045;-66
2022/03/25 03:56:59;;;;;;;26.05;13.50;;;;;;;1.28;69.01;98258.56;5025453;28;20731;-66
2022/03/25 03:59:26;;;;;;;26.38;13.68;;;;;;;1.26;69.53;98255.22;5023418;28;20051;-65
2022/03/25 04:01:52;;;;;;;25.13;11.45;;;;;;;1.24;69.50;98260.75;5024349;28;20053;-65
2022/03/25 04:04:19;;;;;;;26.55;13.23;;;;;;;1.25;69.14;98267.72;5025886;28;20124;-65
2022/03/25 04:06:46;;;;;;;25.92;13.07;;;;;;;1.13;69.54;98258.41;5030480;28;20042;-66
2022/03/25 04:09:12;;;;;;;24.90;13.77;;;;;;;0.98;70.39;98264.44;5024422;28;20058;-65
2022/03/25 04:11:39;;;;;;;28.90;13.23;;;;;;;0.87;70.38;98268.28;5023878;28;20045;-66
2022/03/25 04:14:05;;;;;;;24.65;12.85;;;;;;;0.95;70.16;98259.44;5024487;28;20045;-65
2022/03/25 04:16:36;;;;;;;28.63;12.68;;;;;;;1.11;69.64;98263.09;5021882;28;20037;-65
2022/03/25 04:19:02;;;;;;;22.50;11.45;;;;;;;1.15;69.47;98267.09;5023640;28;20045;-66
2022/03/25 04:21:29;;;;;;;19.08;11.15;;;;;;;1.26;69.35;98263.25;5022053;28;20041;-66
2022/03/25 04:23:55;;;;;;;26.92;13.50;;;;;;;1.17;69.22;98268.59;5024199;28;20056;-65
2022/03/25 04:26:24;;;;;;;24.52;12.32;;;;;;;1.07;69.89;98267.91;5024778;28;20045;-65
2022/03/25 04:28:50;;;;;;;26.88;11.70;;;;;;;1.09;69.65;98265.09;5023820;28;20041;-65
2022/03/25 04:31:17;;;;;;;25.80;12.70;;;;;;;1.13;69.51;98261.09;5023539;28;20412;-65
2022/03/25 04:33:44;;;;;;;23.17;11.88;;;;;;;1.16;69.63;98261.59;5025178;28;20077;-65
2022/03/25 04:36:10;;;;;;;30.02;14.32;;;;;;;1.03;70.02;98263.91;5023907;28;20042;-66
2022/03/25 04:38:37;;;;;;;27.27;13.15;;;;;;;0.94;70.47;98265.78;5023472;28;20037;-66
2022/03/25 04:41:04;;;;;;;28.50;12.90;;;;;;;0.87;70.63;98260.28;5023821;28;20042;-66
2022/03/25 04:43:30;;;;;;;29.95;14.77;;;;;;;0.86;70.71;98265.78;5025495;28;20052;-66
2022/03/25 04:45:57;;;;;;;23.05;11.38;;;;;;;0.94;70.77;98259.59;5023710;28;20049;-65
2022/03/25 04:48:23;;;;;;;31.70;12.90;;;;;;;1.13;70.13;98259.25;5024921;28;20060;-65
2022/03/25 04:50:50;;;;;;;24.38;12.25;;;;;;;1.26;69.40;98253.38;5024032;28;20052;-65
2022/03/25 04:53:17;;;;;;;25.02;12.88;;;;;;;1.28;69.70;98255.88;5026123;28;20061;-65
2022/03/25 04:55:43;;;;;;;23.42;12.43;;;;;;;1.21;69.58;98257.59;5023698;28;20578;-66
2022/03/25 04:58:10;;;;;;;27.35;13.10;;;;;;;1.14;69.66;98260.91;5027464;28;20049;-66
2022/03/25 05:00:37;;;;;;;29.25;12.57;;;;;;;1.19;69.98;98260.41;5026965;28;20038;-66
2022/03/25 05:03:05;;;;;;;25.38;12.85;;;;;;;1.22;69.68;98257.38;5026740;28;20041;-66
2022/03/25 05:05:32;;;;;;;26.77;12.57;;;;;;;1.09;70.17;98260.59;5028650;28;20037;-66
2022/03/25 05:07:59;;;;;;;29.85;14.35;;;;;;;1.22;69.88;98261.91;5025888;28;20041;-66
2022/03/25 05:10:26;;;;;;;30.83;15.50;;;;;;;1.29;69.27;98260.25;5026910;28;20038;-67
2022/03/25 05:12:52;;;;;;;26.95;13.57;;;;;;;1.28;69.45;98258.56;5024313;28;20144;-67
2022/03/25 05:15:19;;;;;;;26.65;12.90;;;;;;;1.23;69.59;98253.75;5023266;28;20567;-66
2022/03/25 05:17:48;;;;;;;30.85;14.40;;;;;;;1.24;69.58;98252.72;5017136;28;20038;-67
2022/03/25 05:20:16;;;;;;;36.53;14.48;;;;;;;1.08;70.26;98258.09;5023229;28;20056;-66
2022/03/25 05:22:43;;;;;;;28.48;13.82;;;;;;;1.13;69.88;98259.25;5022987;28;20116;-67
2022/03/25 05:25:10;;;;;;;27.80;12.65;;;;;;;1.06;70.31;98262.78;5024480;28;20064;-66
2022/03/25 05:27:50;;;;;;;29.45;14.95;;;;;;;1.01;70.52;98256.13;5023383;28;20037;-64
2022/03/25 05:30:23;;;;;;;26.77;12.82;;;;;;;0.96;70.69;98257.63;5018488;28;20055;-66
2022/03/25 05:32:49;;;;;;;27.80;12.43;;;;;;;1.03;70.41;98261.25;5024655;28;20119;-66
2022/03/25 05:35:21;;;;;;;31.55;13.98;;;;;;;1.05;70.22;98256.59;5024906;28;20084;-66
2022/03/25 05:37:48;;;;;;;28.10;13.68;;;;;;;0.95;70.74;98259.44;5022315;28;20034;-66
2022/03/25 05:40:16;;;;;;;25.17;12.93;;;;;;;0.99;70.99;98265.28;5025108;28;20103;-66
2022/03/25 05:42:43;;;;;;;31.10;14.07;;;;;;;1.04;70.67;98276.28;5022763;28;20045;-66
2022/03/25 05:45:10;;;;;;;30.35;15.35;;;;;;;1.08;70.79;98268.75;5024186;28;20052;-66
2022/03/25 05:47:38;;;;;;;25.80;13.40;;;;;;;0.96;70.29;98271.75;5022928;28;20049;-66
2022/03/25 05:50:06;;;;;;;27.42;13.23;;;;;;;0.82;71.14;98283.97;5024358;28;20460;-66
2022/03/25 05:52:32;;;;;;;30.27;13.95;;;;;;;0.81;71.01;98278.78;5023498;28;20061;-66
2022/03/25 05:54:59;;;;;;;31.10;15.02;;;;;;;0.81;71.93;98278.78;5024281;28;20057;-66
2022/03/25 05:57:25;;;;;;;31.40;14.70;;;;;;;0.92;71.12;98280.28;5023474;28;20052;-66
2022/03/25 05:59:52;;;;;;;29.33;15.15;;;;;;;0.99;71.07;98286.63;5024094;28;20514;-65
2022/03/25 06:02:19;;;;;;;29.58;15.00;;;;;;;1.03;70.88;98288.78;5021767;28;20045;-66
2022/03/25 06:04:46;;;;;;;28.25;14.20;;;;;;;1.13;70.63;98285.94;5026972;28;20037;-65
2022/03/25 06:07:13;;;;;;;27.10;13.73;;;;;;;1.12;70.87;98288.75;5024297;28;20034;-65
2022/03/25 06:09:39;;;;;;;33.35;15.57;;;;;;;1.16;70.65;98285.59;5025963;28;20044;-66
2022/03/25 06:12:06;;;;;;;30.27;14.02;;;;;;;1.28;70.75;98290.56;5026211;28;20505;-65
2022/03/25 06:14:34;;;;;;;29.55;15.13;;;;;;;1.34;70.21;98295.25;5025605;28;20041;-65
2022/03/25 06:17:01;;;;;;;30.88;17.40;;;;;;;1.42;70.46;98291.72;5030539;28;20643;-64
2022/03/25 06:19:29;;;;;;;29.50;15.23;;;;;;;1.50;70.18;98296.19;5022232;28;20041;-64
2022/03/25 06:21:56;;;;;;;30.15;14.93;;;;;;;1.57;69.57;98299.84;5021099;28;20060;-64
2022/03/25 06:24:23;;;;;;;32.42;15.23;;;;;;;1.60;70.07;98296.00;5023975;28;20524;-64
2022/03/25 06:26:50;;;;;;;36.33;16.92;;;;;;;1.68;69.72;98296.84;5021981;28;20100;-65
2022/03/25 06:29:17;;;;;;;30.42;15.43;;;;;;;1.86;70.01;98290.44;5019843;28;20057;-65
2022/03/25 06:31:43;;;;;;;30.95;14.60;;;;;;;1.97;69.19;98291.88;5022334;28;20270;-65
2022/03/25 06:34:10;;;;;;;31.00;15.38;;;;;;;2.25;68.94;98299.41;5023597;28;20100;-67
2022/03/25 06:36:37;;;;;;;29.13;14.85;;;;;;;2.49;67.55;98296.78;5022888;28;20220;-64
2022/03/25 06:39:03;;;;;;;29.80;13.98;;;;;;;2.60;67.60;98301.72;5022251;28;20049;-64
2022/03/25 06:41:30;;;;;;;29.27;14.65;;;;;;;2.67;67.09;98302.69;5022971;28;20102;-65
2022/03/25 06:43:57;;;;;;;31.35;15.52;;;;;;;2.82;66.66;98302.75;5022403;28;20053;-65
2022/03/25 06:46:24;;;;;;;33.63;14.98;;;;;;;3.03;66.27;98295.91;5019982;28;20046;-66
2022/03/25 06:48:52;;;;;;;31.27;14.90;;;;;;;3.11;66.39;98300.34;5021262;28;20668;-64
2022/03/25 06:51:18;;;;;;;27.77;14.73;;;;;;;3.23;66.67;98303.41;5018135;28;20080;-65
2022/03/25 06:53:45;;;;;;;33.75;13.90;;;;;;;3.32;65.71;98302.31;5023501;28;20045;-64
2022/03/25 06:56:13;;;;;;;24.73;13.32;;;;;;;3.50;64.88;98311.84;5021730;28;20559;-65
2022/03/25 06:58:40;;;;;;;31.52;13.73;;;;;;;3.70;64.78;98312.16;5014469;28;20045;-65
2022/03/25 07:01:07;;;;;;;29.50;14.40;;;;;;;3.96;64.87;98307.34;5022853;28;20045;-64
2022/03/25 07:03:34;;;;;;;29.50;13.93;;;;;;;4.14;63.92;98310.47;5025585;28;20041;-65
2022/03/25 07:06:01;;;;;;;29.63;13.88;;;;;;;4.39;62.97;98314.69;5012243;28;20060;-64
2022/03/25 07:08:29;;;;;;;29.45;13.55;;;;;;;4.61;62.81;98320.09;5019043;28;20038;-65
2022/03/25 07:10:59;;;;;;;26.73;13.43;;;;;;;4.79;62.24;98314.28;5023379;28;20765;-65
2022/03/25 07:13:27;;;;;;;29.50;13.75;;;;;;;4.94;62.36;98316.91;5020658;28;20665;-65
2022/03/25 07:15:54;;;;;;;28.92;14.93;;;;;;;5.14;62.13;98314.41;5018027;28;20505;-65
2022/03/25 07:18:21;;;;;;;24.10;13.90;;;;;;;5.34;60.72;98322.63;5023146;28;20052;-65
2022/03/25 07:20:47;;;;;;;30.15;15.80;;;;;;;5.47;60.88;98321.91;5021522;28;20046;-65
2022/03/25 07:23:15;;;;;;;27.90;13.85;;;;;;;5.61;61.58;98319.31;5036446;28;20832;-65
2022/03/25 07:25:41;;;;;;;27.88;13.25;;;;;;;5.63;61.24;98319.13;5021238;28;20690;-65
2022/03/25 07:28:08;;;;;;;29.95;14.55;;;;;;;5.64;61.14;98323.44;5022375;28;20038;-65
2022/03/25 07:30:34;;;;;;;27.40;14.98;;;;;;;5.64;61.22;98324.25;5024571;28;20045;-66
2022/03/25 07:33:01;;;;;;;29.48;14.52;;;;;;;5.71;61.01;98325.16;5024976;28;20045;-64
2022/03/25 07:35:28;;;;;;;29.23;14.52;;;;;;;5.89;59.98;98325.69;5027787;28;20124;-65
2022/03/25 07:37:55;;;;;;;27.63;14.02;;;;;;;6.19;58.35;98330.84;5021764;28;20095;-65
2022/03/25 07:40:22;;;;;;;30.48;14.05;;;;;;;6.38;57.14;98329.25;5010164;28;20504;-65
2022/03/25 07:42:48;;;;;;;28.73;15.23;;;;;;;6.56;57.43;98331.38;5035609;28;20098;-67
2022/03/25 07:45:16;;;;;;;32.45;14.98;;;;;;;6.75;56.29;98337.84;5029578;28;20081;-65
2022/03/25 07:47:45;;;;;;;33.15;14.95;;;;;;;6.87;56.35;98339.94;5027832;28;20049;-65
2022/03/25 07:50:13;;;;;;;30.40;14.82;;;;;;;7.34;54.77;98345.38;5017666;28;20046;-65
2022/03/25 07:52:40;;;;;;;25.17;13.63;;;;;;;7.46;54.36;98344.75;5024433;28;20057;-65
2022/03/25 07:55:09;;;;;;;28.33;14.60;;;;;;;7.66;53.50;98337.50;5024981;28;20456;-65
2022/03/25 07:57:38;;;;;;;28.02;15.05;;;;;;;7.79;53.88;98339.38;5029333;28;20042;-65
2022/03/25 08:00:11;;;;;;;29.98;14.43;;;;;;;7.86;52.95;98344.75;5034463;28;20046;-65
2022/03/25 08:02:44;;;;;;;32.35;14.10;;;;;;;8.09;51.77;98337.19;5022525;28;20050;-65
2022/03/25 08:05:13;;;;;;;28.48;14.02;;;;;;;8.16;51.14;98341.56;5022659;28;20049;-66
2022/03/25 08:07:48;;;;;;;31.92;14.35;;;;;;;8.37;50.04;98336.91;5021535;28;20042;-65
2022/03/25 08:10:17;;;;;;;35.30;14.70;;;;;;;8.58;49.58;98340.38;5025391;28;20076;-66
2022/03/25 08:12:44;;;;;;;33.80;15.90;;;;;;;8.66;50.11;98342.00;5024082;28;20116;-65
2022/03/25 08:15:11;;;;;;;27.95;14.43;;;;;;;8.73;48.85;98344.69;5024711;28;20907;-65
2022/03/25 08:18:00;;;;;;;29.90;15.55;;;;;;;8.67;49.06;98341.78;5024253;28;20049;-65
2022/03/25 08:20:35;;;;;;;32.20;14.15;;;;;;;8.73;48.93;98350.09;5025155;28;20050;-65
2022/03/25 08:23:04;;;;;;;28.80;14.93;;;;;;;8.79;47.87;98347.34;5024864;28;20513;-65
2022/03/25 08:28:18;;;;;;;28.67;14.88;;;;;;;9.07;47.50;98346.13;5036918;28;20048;-65
2022/03/25 08:30:46;;;;;;;35.33;16.17;;;;;;;9.13;47.29;98346.31;5039702;28;20088;-65
2022/03/25 08:33:13;;;;;;;31.55;15.45;;;;;;;9.23;46.77;98343.94;5028138;28;20056;-65
2022/03/25 08:35:41;;;;;;;29.65;15.10;;;;;;;9.33;46.90;98346.16;5027088;28;20076;-65
2022/03/25 08:38:08;;;;;;;30.30;14.48;;;;;;;9.42;46.15;98349.41;5042141;28;20048;-65
2022/03/25 08:40:36;;;;;;;28.30;15.93;;;;;;;9.45;46.21;98344.41;5034556;28;20699;-65
2022/03/25 08:43:23;;;;;;;28.65;14.52;;;;;;;9.50;46.07;98343.72;5027843;28;20127;-65
2022/03/25 08:45:49;;;;;;;27.90;14.32;;;;;;;9.66;45.74;98341.53;5026885;28;20048;-65
2022/03/25 08:48:16;;;;;;;30.65;15.30;;;;;;;9.76;45.43;98345.38;5030236;28;20140;-65
2022/03/25 08:50:42;;;;;;;30.15;14.88;;;;;;;9.87;45.19;98343.81;5048353;28;20052;-65
2022/03/25 08:53:09;;;;;;;32.03;15.77;;;;;;;9.98;45.19;98346.81;5030933;28;20033;-65
2022/03/25 08:55:36;;;;;;;26.95;14.60;;;;;;;10.10;44.82;98345.03;5026188;28;20057;-65
2022/03/25 08:58:04;;;;;;;31.02;14.52;;;;;;;10.16;44.04;98346.00;5025836;28;20136;-66
2022/03/25 09:00:31;;;;;;;28.00;14.20;;;;;;;10.23;44.30;98341.38;5023862;28;20053;-65
2022/03/25 09:02:58;;;;;;;31.42;16.27;;;;;;;10.36;43.96;98344.97;5025274;28;20076;-65
2022/03/25 09:05:25;;;;;;;25.73;14.07;;;;;;;10.43;43.12;98343.00;5025683;28;20606;-65
2022/03/25 09:07:51;;;;;;;28.83;15.73;;;;;;;10.57;42.85;98346.41;5025213;28;20048;-65
2022/03/25 09:10:18;;;;;;;27.67;15.05;;;;;;;10.67;42.90;98345.88;5025315;28;20083;-65
2022/03/25 09:12:45;;;;;;;32.75;15.80;;;;;;;10.77;42.43;98353.44;5024149;28;20056;-65
2022/03/25 09:15:13;;;;;;;30.98;17.00;;;;;;;10.99;42.40;98347.53;5025608;28;20115;-65
2022/03/25 09:17:45;;;;;;;31.92;15.73;;;;;;;11.22;41.29;98352.19;5023594;28;20057;-65
2022/03/25 09:20:13;;;;;;;27.05;14.95;;;;;;;11.28;41.48;98345.81;5025027;28;20057;-65
2022/03/25 09:22:40;;;;;;;29.98;16.83;;;;;;;11.37;39.71;98338.19;5030688;28;20053;-65
2022/03/25 09:25:07;;;;;;;32.00;16.15;;;;;;;11.50;39.01;98345.25;5024977;28;20084;-65
2022/03/25 09:27:35;;;;;;;29.92;17.20;;;;;;;11.62;39.90;98347.16;5024370;28;20042;-65
2022/03/25 09:30:05;;;;;;;26.42;14.18;;;;;;;11.69;38.69;98351.41;5039093;28;20558;-65
2022/03/25 09:32:51;;;;;;;31.50;16.85;;;;;;;11.78;38.72;98351.06;5024035;28;20057;-66
2022/03/25 09:35:19;;;;;;;29.23;15.98;;;;;;;11.93;38.36;98350.59;5026349;28;20537;-66
2022/03/25 09:37:48;;;;;;;33.97;16.77;;;;;;;11.93;38.20;98347.88;5007687;28;20469;-66
2022/03/25 09:40:20;;;;;;;28.17;15.73;;;;;;;12.13;38.66;98346.72;5007263;28;20072;-65
2022/03/25 09:42:50;;;;;;;32.42;16.42;;;;;;;12.12;38.28;98355.94;5019692;28;20045;-66
2022/03/25 09:45:18;;;;;;;33.33;17.60;;;;;;;12.12;38.59;98358.66;5027586;28;20051;-66
2022/03/25 09:47:47;;;;;;;27.70;15.68;;;;;;;12.21;38.42;98349.88;5025750;28;20041;-66
2022/03/25 09:50:17;;;;;;;29.88;16.88;;;;;;;12.20;37.84;98347.44;5027064;28;20084;-65
2022/03/25 09:52:45;;;;;;;31.25;17.17;;;;;;;12.21;37.79;98349.06;5039541;28;20168;-65
2022/03/25 09:55:31;;;;;;;31.35;16.75;;;;;;;12.28;37.49;98357.94;5023241;28;20449;-66
2022/03/25 09:57:58;;;;;;;30.80;16.70;;;;;;;12.33;37.72;98349.88;5019975;28;20033;-66
2022/03/25 10:00:25;;;;;;;28.77;16.75;;;;;;;12.56;37.12;98356.31;5036289;28;20048;-66
2022/03/25 10:02:51;;;;;;;28.13;16.80;;;;;;;12.50;36.18;98346.44;5026275;28;20049;-65
2022/03/25 10:05:20;;;;;;;26.55;16.38;;;;;;;12.54;36.84;98347.59;5024610;28;20111;-66
2022/03/25 10:07:55;;;;;;;30.08;16.55;;;;;;;12.56;36.41;98353.59;5023971;28;20052;-65
2022/03/25 10:10:24;;;;;;;30.10;17.38;;;;;;;12.58;36.72;98346.03;5024190;28;20095;-66
2022/03/25 10:13:02;;;;;;;30.50;17.42;;;;;;;12.78;37.20;98346.69;5024562;28;20049;-65
2022/03/25 10:15:32;;;;;;;34.65;18.05;;;;;;;12.79;36.33;98349.13;5026695;28;20037;-66
2022/03/25 10:18:04;;;;;;;31.40;17.33;;;;;;;12.81;36.97;98341.59;5031754;28;20054;-66
2022/03/25 10:20:38;;;;;;;31.98;17.80;;;;;;;12.77;36.03;98345.84;5037452;28;20033;-66
2022/03/25 10:23:07;;;;;;;31.77;17.02;;;;;;;12.84;35.13;98345.72;5031860;28;20045;-66
2022/03/25 10:25:47;;;;;;;29.55;16.90;;;;;;;12.90;33.91;98354.78;5023123;28;20050;-66
2022/03/25 10:28:40;;;;;;;30.42;17.30;;;;;;;12.95;35.05;98349.44;5024364;28;20129;-66
2022/03/25 10:31:13;;;;;;;30.42;16.85;;;;;;;13.01;36.28;98337.56;5023850;28;20050;-66
2022/03/25 10:33:44;;;;;;;33.83;17.92;;;;;;;13.25;34.16;98345.63;5022889;28;20056;-65
2022/03/25 10:36:14;;;;;;;27.63;17.63;;;;;;;13.32;34.26;98350.91;5022303;28;20456;-65
2022/03/25 10:38:50;;;;;;;32.17;18.35;;;;;;;13.32;33.24;98346.28;5015275;28;20036;-66
2022/03/25 10:41:20;;;;;;;32.47;18.38;;;;;;;13.35;34.03;98342.25;5026151;28;20099;-66
2022/03/25 10:44:03;;;;;;;30.52;18.50;;;;;;;13.42;33.83;98344.81;5026188;28;20052;-66
2022/03/25 10:46:34;;;;;;;34.45;19.23;;;;;;;13.45;34.32;98349.78;5025750;28;20045;-66
2022/03/25 10:49:05;;;;;;;33.58;18.27;;;;;;;13.59;33.37;98340.22;5026030;28;20046;-66
2022/03/25 10:51:33;;;;;;;33.65;18.70;;;;;;;13.68;33.50;98337.09;5029915;28;20099;-66
2022/03/25 10:54:09;;;;;;;31.15;17.83;;;;;;;13.60;31.87;98338.34;5029108;28;20049;-66
2022/03/25 10:56:47;;;;;;;29.00;17.35;;;;;;;13.59;31.78;98342.13;5023933;28;20049;-66
2022/03/25 10:59:26;;;;;;;27.85;16.52;;;;;;;13.71;32.18;98337.41;5025923;28;20042;-65
2022/03/25 11:01:55;;;;;;;32.92;17.77;;;;;;;13.76;31.75;98342.13;5023928;28;20056;-65
2022/03/25 11:04:23;;;;;;;32.05;17.60;;;;;;;13.71;31.58;98336.59;5026050;28;20045;-66
2022/03/25 11:06:50;;;;;;;38.08;19.45;;;;;;;13.95;32.75;98330.94;5026243;28;20045;-66
2022/03/25 11:09:18;;;;;;;31.85;18.48;;;;;;;13.98;32.79;98335.91;5024631;28;20060;-65
2022/03/25 11:11:48;;;;;;;30.10;16.88;;;;;;;14.05;30.45;98331.91;5023624;28;20111;-65
2022/03/25 11:14:16;;;;;;;28.27;16.85;;;;;;;14.03;30.86;98331.34;5025387;28;20049;-65
2022/03/25 11:16:45;;;;;;;27.20;16.02;;;;;;;14.06;30.17;98338.19;5024707;28;20046;-66
2022/03/25 11:19:13;;;;;;;27.80;16.85;;;;;;;14.10;30.50;98331.16;5024999;28;20464;-66
2022/03/25 11:21:45;;;;;;;29.30;18.08;;;;;;;14.18;31.51;98330.75;5023329;28;20045;-66
2022/03/25 11:24:43;;;;;;;30.10;17.60;;;;;;;14.27;30.73;98327.56;5025373;28;20037;-66
2022/03/25 11:27:34;;;;;;;28.55;17.52;;;;;;;14.50;31.27;98317.50;5020935;28;20066;-66
2022/03/25 11:30:05;;;;;;;30.83;18.73;;;;;;;14.54;31.01;98319.47;5023320;28;20041;-66
2022/03/25 11:32:32;;;;;;;31.48;17.55;;;;;;;14.63;31.06;98317.09;5022410;28;20045;-66